createdAt,value
2023-04-14T00:02:18.872Z,4.80
2023-04-14T00:05:05.584Z,4.70
2023-04-14T00:07:51.540Z,4.70
2023-04-14T00:10:37.373Z,4.70
2023-04-14T00:13:23.309Z,4.60
2023-04-14T00:16:11.665Z,4.60
2023-04-14T00:18:58.064Z,4.60
2023-04-14T00:21:44.359Z,4.60
2023-04-14T00:24:30.889Z,4.50
2023-04-14T00:27:16.714Z,4.50
2023-04-14T00:30:02.873Z,4.60
2023-04-14T00:32:49.213Z,4.70
2023-04-14T00:35:36.235Z,4.70
2023-04-14T00:38:22.111Z,4.70
2023-04-14T00:41:08.723Z,4.80
2023-04-14T00:43:55.744Z,4.90
2023-04-14T00:46:42.547Z,5.00
2023-04-14T00:49:29.408Z,5.00
2023-04-14T00:52:15.942Z,5.10
2023-04-14T00:55:05.153Z,5.10
2023-04-14T00:57:51.553Z,5.10
2023-04-14T01:00:38.266Z,5.10
2023-04-14T01:03:24.976Z,5.00
2023-04-14T01:06:11.689Z,4.90
2023-04-14T01:08:58.301Z,4.90
2023-04-14T01:12:07.202Z,4.90
2023-04-14T01:15:08.785Z,4.90
2023-04-14T01:18:03.972Z,5.00
2023-04-14T01:20:55.246Z,5.10
2023-04-14T01:24:23.589Z,5.10
2023-04-14T01:27:34.114Z,5.10
2023-04-14T01:30:29.738Z,4.90
2023-04-14T01:33:20.808Z,4.90
2023-04-14T01:36:13.505Z,4.90
2023-04-14T01:39:04.610Z,4.80
2023-04-14T01:41:56.544Z,4.80
2023-04-14T01:44:44.193Z,4.70
2023-04-14T01:47:31.042Z,4.70
2023-04-14T01:50:19.542Z,4.90
2023-04-14T01:53:08.325Z,4.90
2023-04-14T01:55:56.075Z,4.90
2023-04-14T01:58:44.400Z,4.90
2023-04-14T02:01:34.442Z,4.80
2023-04-14T02:04:25.838Z,4.80
2023-04-14T02:07:13.425Z,4.80
2023-04-14T02:10:00.929Z,4.80
2023-04-14T02:12:48.394Z,4.90
2023-04-14T02:15:37.705Z,4.80
2023-04-14T02:18:23.782Z,4.80
2023-04-14T02:21:11.836Z,4.90
2023-04-14T02:23:58.039Z,4.80
2023-04-14T02:26:58.670Z,4.90
2023-04-14T02:29:52.454Z,5.10
2023-04-14T02:32:43.181Z,5.20
2023-04-14T02:35:32.054Z,5.30
2023-04-14T02:38:30.458Z,5.30
2023-04-14T02:41:25.204Z,5.30
2023-04-14T02:44:24.426Z,5.40
2023-04-14T02:47:13.376Z,5.50
2023-04-14T02:50:05.407Z,5.50
2023-04-14T02:52:55.334Z,5.50
2023-04-14T02:55:47.851Z,5.50
2023-04-14T02:58:34.833Z,5.50
2023-04-14T03:01:21.923Z,5.40
2023-04-14T03:04:11.177Z,5.40
2023-04-14T03:07:00.737Z,5.40
2023-04-14T03:09:51.718Z,5.40
2023-04-14T03:12:42.174Z,5.40
2023-04-14T03:15:31.716Z,5.40
2023-04-14T03:18:18.662Z,5.40
2023-04-14T03:21:06.221Z,5.30
2023-04-14T03:23:55.949Z,5.20
2023-04-14T03:26:44.329Z,5.10
2023-04-14T03:29:34.801Z,5.00
2023-04-14T03:32:25.763Z,4.90
2023-04-14T03:35:14.975Z,4.90
2023-04-14T03:38:02.478Z,4.80
2023-04-14T03:40:50.364Z,4.80
2023-04-14T03:43:41.158Z,4.80
2023-04-14T03:46:31.867Z,4.80
2023-04-14T03:49:21.156Z,4.70
2023-04-14T03:52:12.193Z,4.70
2023-04-14T03:55:03.435Z,4.70
2023-04-14T03:57:50.251Z,4.70
2023-04-14T04:00:37.543Z,4.70
2023-04-14T04:03:25.555Z,4.60
2023-04-14T04:06:12.809Z,4.60
2023-04-14T04:09:02.274Z,4.70
2023-04-14T04:11:51.075Z,4.80
2023-04-14T04:14:41.498Z,4.80
2023-04-14T04:17:32.730Z,4.90
2023-04-14T04:20:21.144Z,5.10
2023-04-14T04:23:09.741Z,5.20
2023-04-14T04:25:56.780Z,5.40
2023-04-14T04:29:00.545Z,5.40
2023-04-14T04:31:47.791Z,5.50
2023-04-14T04:34:35.295Z,5.60
2023-04-14T04:37:28.204Z,5.60
2023-04-14T04:40:15.496Z,5.60
2023-04-14T04:43:02.151Z,5.70
2023-04-14T04:46:10.908Z,5.60
2023-04-14T04:48:57.672Z,5.70
2023-04-14T04:51:45.402Z,5.70
2023-04-14T04:54:31.611Z,5.80
2023-04-14T04:57:17.610Z,5.70
2023-04-14T05:00:05.352Z,5.80
2023-04-14T05:02:51.817Z,5.80
2023-04-14T05:05:38.020Z,5.70
2023-04-14T05:08:24.565Z,5.70
2023-04-14T05:11:10.942Z,5.70
2023-04-14T05:13:57.082Z,5.70
2023-04-14T05:16:43.015Z,5.70
2023-04-14T05:19:28.949Z,5.80
2023-04-14T05:22:14.849Z,5.80
2023-04-14T05:25:01.325Z,5.80
2023-04-14T05:27:47.223Z,5.80
2023-04-14T05:30:33.110Z,5.80
2023-04-14T05:33:19.413Z,5.80
2023-04-14T05:36:06.035Z,5.80
2023-04-14T05:38:52.050Z,5.80
2023-04-14T05:41:38.122Z,5.90
2023-04-14T05:44:24.261Z,5.80
2023-04-14T05:47:10.416Z,5.90
2023-04-14T05:49:56.358Z,5.90
2023-04-14T05:52:42.358Z,5.80
2023-04-14T05:55:28.283Z,5.80
2023-04-14T05:58:14.893Z,5.90
2023-04-14T06:01:00.790Z,5.80
2023-04-14T06:03:47.737Z,5.90
2023-04-14T06:06:33.978Z,5.90
2023-04-14T06:09:19.964Z,5.90
2023-04-14T06:12:06.283Z,5.90
2023-04-14T06:14:52.453Z,5.90
2023-04-14T06:17:39.779Z,5.80
2023-04-14T06:20:26.178Z,5.80
2023-04-14T06:23:12.378Z,5.80
2023-04-14T06:25:58.623Z,5.80
2023-04-14T06:28:44.744Z,5.90
2023-04-14T06:31:30.812Z,5.90
2023-04-14T06:34:16.657Z,5.90
2023-04-14T06:37:02.758Z,5.90
2023-04-14T06:39:48.887Z,5.90
2023-04-14T06:42:34.940Z,5.90
2023-04-14T06:45:21.426Z,6.00
2023-04-14T06:48:07.963Z,6.00
2023-04-14T06:50:55.860Z,5.90
2023-04-14T06:53:41.803Z,5.90
2023-04-14T06:56:27.736Z,5.90
2023-04-14T06:59:13.749Z,5.90
2023-04-14T07:01:59.884Z,5.90
2023-04-14T07:04:46.062Z,6.00
2023-04-14T07:07:40.524Z,6.00
2023-04-14T07:10:27.294Z,6.00
2023-04-14T07:13:13.496Z,6.10
2023-04-14T07:16:00.854Z,6.10
2023-04-14T07:18:47.337Z,6.10
2023-04-14T07:21:33.239Z,6.20
2023-04-14T07:24:19.546Z,6.30
2023-04-14T07:27:07.340Z,6.30
2023-04-14T07:29:54.160Z,6.40
2023-04-14T07:32:41.395Z,6.40
2023-04-14T07:35:27.932Z,6.40
2023-04-14T07:38:13.857Z,6.40
2023-04-14T07:41:01.450Z,6.50
2023-04-14T07:43:47.575Z,6.50
2023-04-14T07:46:33.704Z,6.60
2023-04-14T07:49:20.129Z,6.50
2023-04-14T07:52:06.130Z,6.50
2023-04-14T07:54:52.067Z,6.60
2023-04-14T07:57:38.238Z,6.60
2023-04-14T08:00:24.633Z,6.60
2023-04-14T08:03:11.403Z,6.60
2023-04-14T08:05:58.164Z,6.60
2023-04-14T08:08:44.424Z,6.60
2023-04-14T08:11:31.172Z,6.60
2023-04-14T08:14:17.531Z,6.70
2023-04-14T08:17:03.492Z,6.70
2023-04-14T08:19:49.668Z,6.70
2023-04-14T08:22:36.727Z,6.80
2023-04-14T08:25:22.928Z,6.90
2023-04-14T08:28:08.957Z,7.00
2023-04-14T08:30:55.036Z,7.00
2023-04-14T08:33:41.368Z,7.00
2023-04-14T08:36:27.791Z,7.00
2023-04-14T08:39:14.581Z,7.00
2023-04-14T08:42:00.731Z,7.00
2023-04-14T08:44:47.427Z,7.00
2023-04-14T08:47:35.771Z,6.90
2023-04-14T08:50:25.100Z,7.00
2023-04-14T08:53:13.428Z,7.00
2023-04-14T08:56:04.429Z,7.10
2023-04-14T08:58:50.926Z,7.20
2023-04-14T09:01:38.485Z,7.30
2023-04-14T09:04:24.716Z,7.40
2023-04-14T09:07:12.242Z,7.50
2023-04-14T09:09:59.144Z,7.70
2023-04-14T09:12:45.528Z,7.80
2023-04-14T09:15:31.946Z,7.80
2023-04-14T09:18:18.198Z,7.90
2023-04-14T09:21:32.932Z,7.90
2023-04-14T09:24:12.133Z,7.90
2023-04-14T09:26:58.284Z,8.00
2023-04-14T09:29:44.911Z,8.10
2023-04-14T09:32:31.460Z,8.10
2023-04-14T09:35:17.424Z,8.10
2023-04-14T09:38:03.809Z,8.10
2023-04-14T09:40:50.138Z,8.20
2023-04-14T09:43:36.830Z,8.30
2023-04-14T09:46:22.965Z,8.30
2023-04-14T09:49:09.027Z,8.40
2023-04-14T09:52:00.567Z,8.40
2023-04-14T09:54:46.636Z,8.50
2023-04-14T09:57:32.581Z,8.60
2023-04-14T10:00:24.097Z,8.60
2023-04-14T10:03:11.451Z,8.40
2023-04-14T10:05:57.736Z,8.50
2023-04-14T10:08:46.918Z,8.70
2023-04-14T10:11:33.373Z,8.80
2023-04-14T10:14:19.504Z,9.00
2023-04-14T10:17:05.880Z,9.10
2023-04-14T10:19:52.657Z,9.20
2023-04-14T10:22:41.115Z,9.30
2023-04-14T10:25:28.128Z,9.40
2023-04-14T10:28:15.081Z,9.50
2023-04-14T10:31:02.816Z,9.50
2023-04-14T10:33:49.176Z,9.60
2023-04-14T10:36:36.908Z,9.50
2023-04-14T10:39:24.479Z,9.30
2023-04-14T10:42:10.898Z,9.20
2023-04-14T10:45:08.567Z,9.10
2023-04-14T10:47:56.309Z,9.10
2023-04-14T10:50:50.286Z,9.00
2023-04-14T10:53:38.941Z,9.10
2023-04-14T10:56:25.371Z,9.20
2023-04-14T10:59:13.379Z,9.50
2023-04-14T11:02:00.441Z,9.80
2023-04-14T11:05:13.229Z,9.80
2023-04-14T11:08:03.121Z,9.90
2023-04-14T11:10:51.231Z,10.10
2023-04-14T11:13:38.840Z,10.20
2023-04-14T11:16:28.971Z,10.20
2023-04-14T11:19:15.582Z,10.50
2023-04-14T11:22:02.226Z,10.80
2023-04-14T11:24:48.751Z,11.10
2023-04-14T11:27:35.736Z,11.10
2023-04-14T11:30:21.763Z,11.10
2023-04-14T11:33:07.800Z,11.20
2023-04-14T11:35:54.955Z,11.40
2023-04-14T11:38:42.452Z,11.80
2023-04-14T11:41:29.459Z,12.00
2023-04-14T11:44:19.375Z,12.00
2023-04-14T11:47:05.609Z,11.60
2023-04-14T11:49:52.089Z,11.50
2023-04-14T11:52:43.781Z,11.40
2023-04-14T11:55:30.800Z,12.00
2023-04-14T11:58:23.786Z,12.90
2023-04-14T12:01:11.535Z,13.40
2023-04-14T12:03:58.500Z,13.60
2023-04-14T12:06:44.823Z,14.00
2023-04-14T12:09:32.084Z,14.50
2023-04-14T12:12:18.933Z,14.40
2023-04-14T12:15:05.588Z,13.90
2023-04-14T12:17:54.285Z,13.20
2023-04-14T12:20:45.964Z,13.40
2023-04-14T12:23:36.313Z,13.30
2023-04-14T12:26:22.995Z,13.10
2023-04-14T12:29:09.969Z,12.80
2023-04-14T12:31:56.746Z,12.60
2023-04-14T12:35:03.530Z,13.10
2023-04-14T12:37:50.566Z,14.10
2023-04-14T12:40:38.744Z,14.60
2023-04-14T12:43:35.445Z,14.30
2023-04-14T12:46:28.228Z,13.80
2023-04-14T12:49:50.135Z,13.70
2023-04-14T12:52:40.704Z,13.80
2023-04-14T12:55:28.400Z,14.50
2023-04-14T12:58:14.486Z,15.10
2023-04-14T13:01:00.943Z,15.10
2023-04-14T13:03:51.843Z,14.40
2023-04-14T13:06:38.870Z,13.50
2023-04-14T13:09:24.966Z,12.60
2023-04-14T13:12:10.792Z,11.80
2023-04-14T13:14:57.068Z,11.00
2023-04-14T13:17:43.047Z,10.60
2023-04-14T13:20:30.852Z,10.50
2023-04-14T13:23:16.821Z,10.40
2023-04-14T13:26:03.085Z,10.50
2023-04-14T13:28:50.746Z,10.80
2023-04-14T13:31:36.691Z,11.30
2023-04-14T13:34:22.833Z,11.80
2023-04-14T13:37:09.101Z,12.10
2023-04-14T13:39:55.027Z,12.20
2023-04-14T13:42:41.289Z,12.00
2023-04-14T13:45:28.425Z,11.60
2023-04-14T13:48:14.819Z,11.50
2023-04-14T13:51:01.940Z,11.40
2023-04-14T13:53:48.484Z,11.30
2023-04-14T13:56:34.625Z,11.40
2023-04-14T13:59:22.870Z,11.60
2023-04-14T14:02:08.999Z,11.60
2023-04-14T14:04:55.317Z,11.50
2023-04-14T14:07:42.046Z,11.20
2023-04-14T14:10:27.971Z,11.20
2023-04-14T14:13:14.617Z,11.20
2023-04-14T14:16:01.655Z,11.40
2023-04-14T14:18:48.522Z,11.60
2023-04-14T14:21:34.760Z,11.50
2023-04-14T14:24:21.227Z,11.80
2023-04-14T14:27:07.201Z,12.20
2023-04-14T14:29:53.612Z,12.70
2023-04-14T14:32:39.703Z,13.20
2023-04-14T14:35:26.036Z,13.60
2023-04-14T14:38:12.021Z,13.70
2023-04-14T14:40:58.288Z,13.60
2023-04-14T14:43:44.319Z,13.20
2023-04-14T14:46:31.532Z,12.90
2023-04-14T14:49:17.739Z,12.70
2023-04-14T14:52:04.769Z,12.60
2023-04-14T14:54:50.985Z,12.50
2023-04-14T14:57:36.880Z,12.50
2023-04-14T15:00:22.819Z,12.40
2023-04-14T15:03:09.266Z,12.30
2023-04-14T15:05:55.565Z,12.20
2023-04-14T15:08:42.123Z,12.10
2023-04-14T15:11:29.457Z,11.90
2023-04-14T15:14:15.878Z,11.80
2023-04-14T15:17:03.002Z,11.70
2023-04-14T15:19:49.706Z,11.60
2023-04-14T15:22:36.481Z,11.20
2023-04-14T15:25:22.550Z,10.40
2023-04-14T15:28:08.751Z,9.60
2023-04-14T15:30:54.729Z,8.90
2023-04-14T15:33:41.547Z,8.40
2023-04-14T15:36:28.965Z,8.10
2023-04-14T15:39:14.999Z,7.90
2023-04-14T15:42:01.349Z,7.60
2023-04-14T15:44:50.615Z,7.50
2023-04-14T15:47:36.625Z,7.30
2023-04-14T15:50:22.474Z,7.20
2023-04-14T15:53:08.462Z,7.20
2023-04-14T15:55:54.932Z,7.30
2023-04-14T15:58:41.036Z,7.20
2023-04-14T16:01:27.350Z,7.20
2023-04-14T16:04:13.933Z,7.20
2023-04-14T16:06:59.948Z,7.20
2023-04-14T16:09:46.525Z,7.20
2023-04-14T16:12:35.171Z,7.30
2023-04-14T16:15:21.626Z,7.40
2023-04-14T16:18:07.741Z,7.50
2023-04-14T16:20:53.856Z,7.70
2023-04-14T16:23:39.881Z,7.80
2023-04-14T16:26:25.928Z,7.80
2023-04-14T16:29:12.497Z,7.80
2023-04-14T16:31:58.829Z,7.80
2023-04-14T16:34:44.857Z,7.90
2023-04-14T16:37:31.002Z,7.80
2023-04-14T16:40:17.446Z,7.80
2023-04-14T16:43:04.411Z,7.80
2023-04-14T16:45:51.434Z,7.90
2023-04-14T16:48:37.571Z,7.90
2023-04-14T16:51:25.691Z,7.90
2023-04-14T16:54:11.885Z,8.00
2023-04-14T16:56:57.774Z,8.00
2023-04-14T16:59:45.051Z,8.00
2023-04-14T17:02:31.766Z,8.00
2023-04-14T17:05:18.058Z,8.10
2023-04-14T17:08:04.471Z,8.10
2023-04-14T17:10:50.656Z,8.10
2023-04-14T17:13:36.752Z,8.00
2023-04-14T17:16:22.893Z,7.90
2023-04-14T17:19:09.287Z,8.00
2023-04-14T17:21:55.443Z,8.00
2023-04-14T17:24:41.330Z,8.00
2023-04-14T17:27:27.299Z,8.10
2023-04-14T17:30:13.501Z,8.00
2023-04-14T17:33:00.807Z,7.90
2023-04-14T17:35:47.038Z,7.60
2023-04-14T17:38:34.628Z,7.50
2023-04-14T17:41:21.193Z,7.50
2023-04-14T17:44:07.365Z,7.40
2023-04-14T17:46:53.886Z,7.30
2023-04-14T17:49:40.512Z,7.30
2023-04-14T17:52:35.939Z,7.20
2023-04-14T17:55:22.526Z,7.10
2023-04-14T17:58:10.447Z,6.90
2023-04-14T18:00:57.430Z,6.90
2023-04-14T18:03:43.808Z,6.80
2023-04-14T18:06:33.671Z,6.70
2023-04-14T18:09:20.080Z,6.70
2023-04-14T18:12:06.034Z,6.60
2023-04-14T18:14:53.232Z,6.60
2023-04-14T18:17:39.267Z,6.50
2023-04-14T18:20:26.371Z,6.50
2023-04-14T18:23:12.741Z,6.60
2023-04-14T18:28:49.475Z,6.50
2023-04-14T18:31:35.888Z,6.50
2023-04-14T18:34:22.348Z,6.50
2023-04-14T18:37:08.611Z,6.50
2023-04-14T18:39:55.146Z,6.40
2023-04-14T18:42:41.495Z,6.40
2023-04-14T18:45:27.641Z,6.50
2023-04-14T18:48:15.317Z,6.50
2023-04-14T18:51:04.294Z,6.60
2023-04-14T18:53:50.316Z,6.50
2023-04-14T18:56:36.806Z,6.50
2023-04-14T18:59:22.748Z,6.50
2023-04-14T19:02:13.065Z,6.50
2023-04-14T19:04:59.436Z,6.50
2023-04-14T19:07:45.937Z,6.40
2023-04-14T19:10:32.406Z,6.30
2023-04-14T19:13:18.738Z,6.20
2023-04-14T19:16:11.365Z,6.20
2023-04-14T19:18:58.565Z,6.20
2023-04-14T19:21:44.713Z,6.30
2023-04-14T19:24:31.674Z,6.50
2023-04-14T19:27:18.752Z,6.50
2023-04-14T19:30:05.921Z,6.60
2023-04-14T19:32:53.415Z,6.50
2023-04-14T19:35:39.431Z,6.40
2023-04-14T19:38:25.307Z,6.40
2023-04-14T19:41:11.246Z,6.30
2023-04-14T19:43:57.164Z,6.30
2023-04-14T19:46:43.425Z,6.40
2023-04-14T19:49:30.893Z,6.50
2023-04-14T19:52:17.636Z,6.60
2023-04-14T19:55:05.467Z,6.60
2023-04-14T19:57:51.651Z,6.50
2023-04-14T20:00:40.872Z,6.50
2023-04-14T20:03:28.273Z,6.50
2023-04-14T20:06:14.371Z,6.50
2023-04-14T20:09:02.031Z,6.50
2023-04-14T20:11:48.271Z,6.40
2023-04-14T20:14:34.603Z,6.40
2023-04-14T20:17:23.213Z,6.40
2023-04-14T20:20:09.456Z,6.30
2023-04-14T20:22:57.000Z,6.30
2023-04-14T20:25:44.830Z,6.30
2023-04-14T20:28:31.779Z,6.30
2023-04-14T20:31:18.337Z,6.20
2023-04-14T20:34:07.034Z,6.30
2023-04-14T20:36:53.719Z,6.40
2023-04-14T20:39:39.530Z,6.40
2023-04-14T20:42:25.696Z,6.50
2023-04-14T20:45:11.737Z,6.50
2023-04-14T20:47:59.404Z,6.50
2023-04-14T20:50:49.474Z,6.50
2023-04-14T20:53:36.149Z,6.50
2023-04-14T20:56:22.601Z,6.50
2023-04-14T20:59:08.547Z,6.50
2023-04-14T21:01:54.994Z,6.50
2023-04-14T21:04:41.368Z,6.50
2023-04-14T21:07:28.175Z,6.60
2023-04-14T21:10:15.482Z,6.60
2023-04-14T21:15:26.347Z,6.50
2023-04-14T21:16:09.548Z,6.60
2023-04-14T21:18:55.841Z,6.50
2023-04-14T21:21:42.130Z,6.50
2023-04-14T21:24:28.619Z,6.50
2023-04-14T21:27:15.326Z,6.50
2023-04-14T21:30:01.776Z,6.50
2023-04-14T21:32:48.145Z,6.50
2023-04-14T21:35:34.564Z,6.50
2023-04-14T21:38:20.471Z,6.60
2023-04-14T21:41:07.978Z,6.50
2023-04-14T21:43:54.527Z,6.50
2023-04-14T21:46:40.691Z,6.50
2023-04-14T21:49:26.972Z,6.50
2023-04-14T21:52:12.909Z,6.50
2023-04-14T21:54:58.797Z,6.50
2023-04-14T21:57:49.183Z,6.50
2023-04-14T22:00:37.367Z,6.50
2023-04-14T22:03:23.763Z,6.40
2023-04-14T22:06:11.550Z,6.40
2023-04-14T22:08:57.821Z,6.40
2023-04-14T22:11:43.905Z,6.40
2023-04-14T22:14:31.035Z,6.40
2023-04-14T22:17:17.522Z,6.40
2023-04-14T22:20:06.080Z,6.30
2023-04-14T22:22:51.980Z,6.30
2023-04-14T22:25:38.811Z,6.30
2023-04-14T22:28:25.218Z,6.30
2023-04-14T22:31:12.163Z,6.30
2023-04-14T22:33:58.418Z,6.20
2023-04-14T22:36:44.471Z,6.20
2023-04-14T22:39:30.407Z,6.20
2023-04-14T22:42:16.655Z,6.20
2023-04-14T22:45:02.677Z,6.10
2023-04-14T22:47:48.661Z,6.10
2023-04-14T22:50:38.450Z,6.10
2023-04-14T22:53:24.652Z,6.10
2023-04-14T22:56:10.625Z,6.10
2023-04-14T22:58:58.032Z,6.10
2023-04-14T23:01:44.012Z,6.10
2023-04-14T23:04:31.369Z,6.10
2023-04-14T23:07:17.209Z,6.10
2023-04-14T23:10:03.838Z,6.00
2023-04-14T23:12:49.682Z,6.10
2023-04-14T23:15:36.229Z,6.10
2023-04-14T23:18:22.558Z,6.00
2023-04-14T23:21:08.478Z,6.00
2023-04-14T23:23:54.631Z,6.00
2023-04-14T23:26:41.237Z,6.00
2023-04-14T23:29:27.665Z,6.00
2023-04-14T23:32:14.247Z,6.00
2023-04-14T23:35:00.766Z,6.00
2023-04-14T23:37:47.018Z,6.10
2023-04-14T23:40:34.426Z,6.10
2023-04-14T23:43:21.879Z,6.10
2023-04-14T23:46:07.804Z,6.20
2023-04-14T23:48:54.179Z,6.20
2023-04-14T23:51:41.160Z,6.20
2023-04-14T23:54:27.713Z,6.10
2023-04-14T23:57:14.133Z,6.10
